Time;durP1;ratioP1;P1;durP2;ratioP2;P2;SDS_P1;SDS_P2;PMS_P1;PMS_P2;Temp;Humidity;BMP_temperature;BMP_pressure;BME280_temperature;BME280_humidity;BME280_pressure;Samples;Min_cycle;Max_cycle;Signal;HPM_P1;HPM_P2
2021/09/01 02:45:07;;;;;;;11.20;6.65;;;16.60;92.70;;;;;;5876697;24;20024;31
2021/09/01 02:47:32;;;;;;;8.15;5.63;;;16.60;92.70;;;;;;4819129;29;20043;-80
2021/09/01 02:49:58;;;;;;;10.52;6.60;;;16.60;92.70;;;;;;4804371;29;20377;-83
2021/09/01 02:52:24;;;;;;;12.70;6.65;;;16.60;92.70;;;;;;4797615;29;20022;-82
2021/09/01 02:54:50;;;;;;;11.73;5.82;;;16.60;92.60;;;;;;4817406;29;20229;-82
2021/09/01 02:57:15;;;;;;;11.23;6.25;;;16.60;92.70;;;;;;4817282;29;20054;-82
2021/09/01 02:59:41;;;;;;;17.15;6.45;;;16.70;92.60;;;;;;4817614;29;20031;-82
2021/09/01 03:02:07;;;;;;;13.23;6.50;;;16.70;92.60;;;;;;4817186;29;20041;-82
2021/09/01 03:04:33;;;;;;;13.25;7.00;;;16.70;92.70;;;;;;4802381;29;20180;-82
2021/09/01 03:06:58;;;;;;;9.43;5.82;;;16.70;92.60;;;;;;4827750;29;20049;-82
2021/09/01 03:09:24;;;;;;;10.60;6.38;;;16.70;92.60;;;;;;4823343;29;20050;-82
2021/09/01 03:11:50;;;;;;;11.55;6.68;;;16.80;92.60;;;;;;4823052;29;20045;-82
2021/09/01 03:14:15;;;;;;;8.60;6.45;;;16.80;92.40;;;;;;4854701;29;20058;-82
2021/09/01 03:16:41;;;;;;;9.30;6.63;;;16.70;92.40;;;;;;4823027;29;20325;-82
2021/09/01 03:19:07;;;;;;;11.05;6.22;;;16.70;92.50;;;;;;4854730;29;20029;-83
2021/09/01 03:21:32;;;;;;;11.30;6.60;;;16.70;92.40;;;;;;4822855;29;20025;-82
2021/09/01 03:23:58;;;;;;;15.35;6.20;;;16.70;92.40;;;;;;4838111;29;20081;-83
2021/09/01 03:26:26;;;;;;;11.43;6.93;;;16.70;92.30;;;;;;4822864;29;20030;-82
2021/09/01 03:28:52;;;;;;;10.98;6.82;;;16.70;92.40;;;;;;4837370;29;20061;-82
2021/09/01 03:31:18;;;;;;;17.10;7.18;;;16.70;92.40;;;;;;4838404;29;20030;-82
2021/09/01 03:33:44;;;;;;;11.13;5.60;;;16.70;92.40;;;;;;4823143;29;20040;-83
2021/09/01 03:36:09;;;;;;;9.63;6.55;;;16.70;92.30;;;;;;4823165;29;20021;-82
2021/09/01 03:38:35;;;;;;;13.10;6.60;;;16.80;92.20;;;;;;4823044;29;20045;-82
2021/09/01 03:41:01;;;;;;;9.48;6.07;;;16.70;91.90;;;;;;4854493;29;20022;-82
2021/09/01 03:43:27;;;;;;;10.93;6.38;;;16.70;92.00;;;;;;4838164;29;20037;-82
2021/09/01 03:45:54;;;;;;;15.77;6.75;;;16.70;92.00;;;;;;4829270;29;20037;-80
2021/09/01 03:48:21;;;;;;;8.35;5.97;;;16.60;91.90;;;;;;4840633;29;20308;-82
2021/09/01 03:50:48;;;;;;;12.57;6.18;;;16.70;91.80;;;;;;4841069;29;20033;-82
2021/09/01 03:53:14;;;;;;;8.50;6.15;;;16.70;91.70;;;;;;4840969;29;20037;-83
2021/09/01 03:55:40;;;;;;;12.48;6.50;;;16.70;91.70;;;;;;4873126;29;20041;-83
2021/09/01 03:58:06;;;;;;;10.82;6.53;;;16.70;91.70;;;;;;4855304;29;20227;-82
2021/09/01 04:00:32;;;;;;;8.50;6.03;;;16.70;91.70;;;;;;4856256;29;20025;-82
2021/09/01 04:02:57;;;;;;;10.73;6.53;;;16.60;91.60;;;;;;4841072;29;20202;-83
2021/09/01 04:05:24;;;;;;;10.65;6.93;;;16.60;91.70;;;;;;4855988;29;20040;-82
2021/09/01 04:07:50;;;;;;;10.33;6.37;;;16.60;91.50;;;;;;4841321;29;20285;-82
2021/09/01 04:10:15;;;;;;;8.52;5.78;;;16.60;91.60;;;;;;4841215;29;20038;-82
2021/09/01 04:12:41;;;;;;;13.90;6.57;;;16.60;91.40;;;;;;4841226;29;20022;-82
2021/09/01 04:15:09;;;;;;;9.48;6.03;;;16.60;91.40;;;;;;4856397;29;20033;-82
2021/09/01 04:17:35;;;;;;;14.02;6.20;;;16.60;91.40;;;;;;4841004;29;20094;-83
2021/09/01 04:20:01;;;;;;;18.15;7.22;;;16.60;91.30;;;;;;4856410;29;20038;-82
2021/09/01 04:22:27;;;;;;;13.02;6.07;;;16.60;91.30;;;;;;4856331;29;20033;-82
2021/09/01 04:24:52;;;;;;;8.13;6.25;;;16.60;91.30;;;;;;4841200;29;20040;-80
2021/09/01 04:27:18;;;;;;;12.25;6.10;;;16.50;91.40;;;;;;4840822;29;20290;-82
2021/09/01 04:29:44;;;;;;;8.32;6.10;;;16.50;91.40;;;;;;4840558;29;20037;-82
2021/09/01 04:32:09;;;;;;;13.45;7.30;;;16.60;91.20;;;;;;4840869;29;20245;-82
2021/09/01 04:34:35;;;;;;;11.32;6.93;;;16.60;91.20;;;;;;4856467;29;20029;-83
2021/09/01 04:37:01;;;;;;;13.90;6.63;;;16.60;91.30;;;;;;4872325;29;20029;-83
2021/09/01 04:39:27;;;;;;;10.13;6.50;;;16.60;91.10;;;;;;4852011;29;20022;-82
2021/09/01 04:41:52;;;;;;;12.45;6.13;;;16.60;91.00;;;;;;4837297;29;20030;-82
2021/09/01 04:44:18;;;;;;;13.57;6.55;;;16.60;91.10;;;;;;4837938;29;20049;-83
2021/09/01 04:46:45;;;;;;;11.18;6.68;;;16.60;90.70;;;;;;4836848;29;20056;-82
2021/09/01 04:49:11;;;;;;;9.27;6.20;;;16.60;90.80;;;;;;4837479;29;20089;-82
2021/09/01 04:51:37;;;;;;;12.35;6.50;;;16.70;90.80;;;;;;4840513;29;20086;-82
2021/09/01 04:54:03;;;;;;;11.15;6.13;;;16.70;90.60;;;;;;4855177;29;20057;-83
2021/09/01 04:56:28;;;;;;;9.90;6.53;;;16.70;90.70;;;;;;4854603;29;20033;-82
2021/09/01 04:58:54;;;;;;;11.15;6.72;;;16.60;90.70;;;;;;4854311;29;20025;-83
2021/09/01 05:01:20;;;;;;;11.63;6.45;;;16.60;90.70;;;;;;4839229;29;20074;-83
2021/09/01 05:03:46;;;;;;;12.88;5.90;;;16.70;90.60;;;;;;4839090;29;20070;-83
2021/09/01 05:06:11;;;;;;;11.70;6.18;;;16.60;90.60;;;;;;4839318;29;20093;-83
2021/09/01 05:08:37;;;;;;;11.25;5.68;;;16.50;90.70;;;;;;4838994;29;20034;-82
2021/09/01 05:11:03;;;;;;;12.90;6.57;;;16.60;90.90;;;;;;4854452;29;20065;-83
2021/09/01 05:13:28;;;;;;;13.85;6.68;;;16.50;90.80;;;;;;4824749;29;20030;-83
2021/09/01 05:15:54;;;;;;;16.17;7.20;;;16.50;91.10;;;;;;4839174;29;20030;-83
2021/09/01 05:18:20;;;;;;;10.90;6.57;;;16.50;91.10;;;;;;4855398;29;20109;-83
2021/09/01 05:20:47;;;;;;;9.52;6.47;;;16.50;91.20;;;;;;4847335;29;20056;-83
2021/09/01 05:23:15;;;;;;;;;;;16.40;91.10;;;;;;4842415;29;20033;-83
2021/09/01 05:25:56;;;;;;;10.65;6.88;;;16.50;91.10;;;;;;4823519;29;19909;-83
2021/09/01 05:28:30;;;;;;;11.63;6.88;;;16.50;91.10;;;;;;4833664;29;20036;-84
2021/09/01 05:30:58;;;;;;;10.68;6.72;;;16.60;90.90;;;;;;4823622;29;20042;-82
2021/09/01 05:33:30;;;;;;;10.75;6.82;;;16.60;90.80;;;;;;4832636;29;20068;-82
2021/09/01 05:35:56;;;;;;;18.45;7.43;;;16.60;90.90;;;;;;4820517;29;20034;-81
2021/09/01 05:38:22;;;;;;;12.02;7.20;;;16.70;90.90;;;;;;4805522;29;20039;-81
2021/09/01 05:40:49;;;;;;;12.43;6.53;;;16.70;90.70;;;;;;4830471;29;20037;-82
2021/09/01 05:43:17;;;;;;;10.80;6.70;;;16.80;90.50;;;;;;4814824;29;20372;-81
2021/09/01 05:45:45;;;;;;;14.07;6.82;;;16.80;90.20;;;;;;4838267;29;20060;-81
2021/09/01 05:48:11;;;;;;;13.40;6.18;;;16.80;90.20;;;;;;4838206;29;20037;-81
2021/09/01 05:50:37;;;;;;;11.13;6.57;;;16.90;90.00;;;;;;4838381;29;20041;-81
2021/09/01 05:53:03;;;;;;;13.32;6.93;;;16.90;90.00;;;;;;4828974;29;20064;-82
2021/09/01 05:55:35;;;;;;;14.80;6.28;;;16.90;90.10;;;;;;4834141;29;20106;-81
2021/09/01 05:58:03;;;;;;;15.90;6.40;;;16.90;89.10;;;;;;4819260;29;20027;-81
2021/09/01 06:00:35;;;;;;;15.27;7.18;;;16.90;89.10;;;;;;4836829;29;20233;-82
2021/09/01 06:03:18;;;;;;;13.30;7.05;;;17.00;89.30;;;;;;4838294;29;20074;-81
2021/09/01 06:05:45;;;;;;;12.35;6.63;;;17.10;88.20;;;;;;4827491;29;20037;-81
2021/09/01 06:08:12;;;;;;;15.80;6.30;;;17.10;88.40;;;;;;4830415;29;20030;-82
2021/09/01 06:10:39;;;;;;;;;;;17.20;87.80;;;;;;4823246;29;20044;-81
2021/09/01 06:13:08;;;;;;;9.15;6.93;;;17.20;88.10;;;;;;4826919;29;19920;-82
2021/09/01 06:15:36;;;;;;;13.57;6.63;;;17.20;86.70;;;;;;4833907;29;20053;-81
2021/09/01 06:18:02;;;;;;;11.13;6.40;;;17.10;86.70;;;;;;4839964;29;20321;-82
2021/09/01 06:20:29;;;;;;;16.38;7.30;;;17.20;86.80;;;;;;4841130;29;20030;-82
2021/09/01 06:22:55;;;;;;;17.97;7.17;;;17.30;87.30;;;;;;4831568;29;20030;-81
2021/09/01 06:25:21;;;;;;;13.52;6.63;;;17.40;87.30;;;;;;4837868;29;20040;-82
2021/09/01 06:27:47;;;;;;;9.80;6.53;;;17.30;87.20;;;;;;4854117;29;20321;-81
2021/09/01 06:30:14;;;;;;;13.25;6.50;;;17.30;86.50;;;;;;4837276;29;20033;-81
2021/09/01 06:32:40;;;;;;;9.98;6.93;;;17.40;86.50;;;;;;4822457;29;20129;-81
2021/09/01 06:35:07;;;;;;;11.27;6.10;;;17.50;85.70;;;;;;4822358;29;20372;-81
2021/09/01 06:37:33;;;;;;;9.65;6.18;;;17.60;85.30;;;;;;4822022;29;20040;-81
2021/09/01 06:40:00;;;;;;;14.43;5.65;;;17.60;85.40;;;;;;4822319;29;20113;-81
2021/09/01 06:42:26;;;;;;;11.90;6.90;;;17.70;84.30;;;;;;4822408;29;20034;-81
2021/09/01 06:44:52;;;;;;;8.45;6.35;;;17.90;84.60;;;;;;4822725;29;20026;-82
2021/09/01 06:47:18;;;;;;;12.52;6.10;;;17.90;83.80;;;;;;4837547;29;20075;-81
2021/09/01 06:49:44;;;;;;;9.95;5.80;;;18.00;84.20;;;;;;4837496;29;20030;-82
2021/09/01 06:52:10;;;;;;;13.98;6.20;;;18.10;83.40;;;;;;4837365;29;20061;-81
2021/09/01 06:54:36;;;;;;;9.38;6.10;;;18.20;83.40;;;;;;4807159;29;20086;-81
2021/09/01 06:57:02;;;;;;;9.73;5.78;;;18.30;83.80;;;;;;4837074;29;20033;-81
2021/09/01 06:59:28;;;;;;;13.17;6.47;;;18.50;83.10;;;;;;4837306;29;20026;-81
2021/09/01 07:01:54;;;;;;;10.60;6.18;;;18.50;81.60;;;;;;4837030;29;20051;-81
2021/09/01 07:04:19;;;;;;;11.30;6.20;;;18.60;82.10;;;;;;4837454;29;20337;-81
2021/09/01 07:06:45;;;;;;;19.90;7.50;;;18.70;81.80;;;;;;4837344;29;20060;-81
2021/09/01 07:09:11;;;;;;;9.50;5.68;;;18.80;81.50;;;;;;4837448;29;20206;-81
2021/09/01 07:11:37;;;;;;;9.30;5.68;;;19.00;80.30;;;;;;4837551;29;20033;-81
2021/09/01 07:14:03;;;;;;;10.18;5.95;;;19.10;80.40;;;;;;4834461;29;20144;-81
2021/09/01 07:16:28;;;;;;;11.38;6.75;;;19.10;79.80;;;;;;4821518;29;20017;-81
2021/09/01 07:18:54;;;;;;;9.18;5.85;;;19.30;79.40;;;;;;4836156;29;20068;-81
2021/09/01 07:21:20;;;;;;;11.20;6.63;;;19.40;78.90;;;;;;4840390;29;20252;-80
2021/09/01 07:23:46;;;;;;;10.38;6.28;;;19.40;78.80;;;;;;4831091;29;20030;-81
2021/09/01 07:26:12;;;;;;;8.02;5.50;;;19.40;78.10;;;;;;4816723;29;20198;-81
2021/09/01 07:28:40;;;;;;;8.60;5.65;;;19.30;78.40;;;;;;4823038;29;20321;-82
2021/09/01 07:31:07;;;;;;;13.75;6.20;;;19.40;78.20;;;;;;4833324;29;20057;-81
2021/09/01 07:33:33;;;;;;;12.32;6.00;;;19.40;77.70;;;;;;4822226;29;20325;-81
2021/09/01 07:35:59;;;;;;;13.82;6.60;;;19.30;77.70;;;;;;4848694;29;20320;-81
2021/09/01 07:38:25;;;;;;;10.53;6.50;;;19.40;77.90;;;;;;4839864;29;20077;-81
2021/09/01 07:40:52;;;;;;;9.20;5.90;;;19.50;77.80;;;;;;4855128;29;20221;-81
2021/09/01 07:43:21;;;;;;;11.10;6.47;;;19.60;77.00;;;;;;4837121;29;20053;-81
2021/09/01 07:45:47;;;;;;;9.98;5.25;;;19.60;76.40;;;;;;4811725;29;20109;-81
2021/09/01 07:48:15;;;;;;;10.20;5.57;;;19.50;77.20;;;;;;4719695;29;20098;-81
2021/09/01 07:50:42;;;;;;;8.70;5.53;;;19.40;78.40;;;;;;4742986;29;20238;-81
2021/09/01 07:53:09;;;;;;;9.00;5.78;;;19.40;78.00;;;;;;4768935;29;20333;-81
2021/09/01 07:55:35;;;;;;;9.32;5.75;;;19.60;77.10;;;;;;4752912;29;20081;-81
2021/09/01 07:58:00;;;;;;;11.02;5.82;;;19.80;76.60;;;;;;4750045;29;20102;-81
2021/09/01 08:00:26;;;;;;;9.52;5.28;;;20.10;76.60;;;;;;4788001;29;20380;-81
2021/09/01 08:02:53;;;;;;;10.80;6.13;;;20.30;74.60;;;;;;4852424;29;20033;-81
2021/09/01 08:05:20;;;;;;;11.82;5.45;;;20.40;74.30;;;;;;4852595;29;20343;-81
2021/09/01 08:07:46;;;;;;;;;;;20.20;75.40;;;;;;4836885;29;20053;-81
2021/09/01 08:10:12;;;;;;;12.00;5.72;;;20.20;73.80;;;;;;4836359;29;19951;-81
2021/09/01 08:12:39;;;;;;;12.40;5.45;;;20.20;74.30;;;;;;4836611;29;20117;-81
2021/09/01 08:15:10;;;;;;;9.90;6.05;;;20.20;74.50;;;;;;4820791;29;20355;-81
2021/09/01 08:17:36;;;;;;;8.30;5.80;;;20.10;75.00;;;;;;4851497;29;20040;-82
2021/09/01 08:20:03;;;;;;;11.05;5.65;;;20.00;75.20;;;;;;4851607;29;20033;-81
2021/09/01 08:22:29;;;;;;;8.73;5.68;;;20.00;75.20;;;;;;4836424;29;20392;-81
2021/09/01 08:24:55;;;;;;;11.57;5.45;;;20.10;76.90;;;;;;4821033;29;20030;-81
2021/09/01 08:27:21;;;;;;;8.63;5.60;;;20.40;75.10;;;;;;4836539;29;20341;-81
2021/09/01 08:29:48;;;;;;;13.63;5.43;;;20.50;73.90;;;;;;4836226;29;20034;-81
2021/09/01 08:32:14;;;;;;;11.32;5.90;;;20.60;72.30;;;;;;4835724;29;20060;-81
2021/09/01 08:34:40;;;;;;;9.50;5.90;;;20.90;72.80;;;;;;4832393;29;20083;-82
2021/09/01 08:37:06;;;;;;;8.20;5.95;;;20.90;71.60;;;;;;4832839;29;20034;-82
2021/09/01 08:39:33;;;;;;;9.13;5.67;;;20.70;71.50;;;;;;4802292;29;20130;-81
2021/09/01 08:41:59;;;;;;;14.80;6.07;;;20.70;72.00;;;;;;4817872;29;20275;-81
2021/09/01 08:44:25;;;;;;;14.30;6.32;;;20.80;72.30;;;;;;4833997;29;20334;-81
2021/09/01 08:46:51;;;;;;;9.55;6.38;;;20.80;71.70;;;;;;4818875;29;20106;-82
2021/09/01 08:49:20;;;;;;;8.85;5.97;;;20.90;72.60;;;;;;4837288;29;20105;-81
2021/09/01 08:51:47;;;;;;;10.70;6.03;;;21.00;70.20;;;;;;4821205;29;20101;-81
2021/09/01 08:54:14;;;;;;;12.23;6.28;;;20.90;70.20;;;;;;4806212;29;20079;-82
2021/09/01 08:56:41;;;;;;;7.88;5.57;;;20.90;71.40;;;;;;4806602;29;20152;-82
2021/09/01 08:59:07;;;;;;;8.40;5.93;;;21.00;70.90;;;;;;4806186;29;20377;-81
2021/09/01 09:01:48;;;;;;;10.05;5.85;;;21.20;70.80;;;;;;4821369;29;20030;-81
2021/09/01 09:04:19;;;;;;;9.85;6.05;;;21.50;69.60;;;;;;4820975;29;20079;-82
2021/09/01 09:06:55;;;;;;;11.85;5.38;;;21.90;69.70;;;;;;4835988;29;20037;-82
2021/09/01 09:09:24;;;;;;;7.57;5.60;;;22.10;67.80;;;;;;4805811;29;20026;-82
2021/09/01 09:11:50;;;;;;;12.07;5.60;;;22.20;68.80;;;;;;4833765;29;20351;-82
2021/09/01 09:14:31;;;;;;;13.60;6.40;;;22.40;67.80;;;;;;4821103;29;20026;-81
2021/09/01 09:17:00;;;;;;;9.15;5.40;;;22.70;68.90;;;;;;4820419;29;20093;-82
2021/09/01 09:19:52;;;;;;;11.77;5.72;;;22.90;66.10;;;;;;4820429;29;20034;-82
2021/09/01 09:22:23;;;;;;;8.65;5.80;;;23.00;64.40;;;;;;4817674;29;20094;-82
2021/09/01 09:25:02;;;;;;;9.02;6.15;;;23.00;65.00;;;;;;4787846;29;20267;-82
2021/09/01 09:28:02;;;;;;;8.98;5.72;;;23.10;64.60;;;;;;4793797;29;20097;-81
2021/09/01 09:30:31;;;;;;;9.45;5.00;;;23.30;64.10;;;;;;4783463;30;20047;-81
2021/09/01 09:33:07;;;;;;;12.63;5.10;;;23.50;64.60;;;;;;4785533;29;20031;-81
2021/09/01 09:35:53;;;;;;;13.95;6.18;;;23.70;62.50;;;;;;4798873;30;20122;-81
2021/09/01 09:38:41;;;;;;;9.68;5.55;;;23.50;62.70;;;;;;4781037;30;20121;-81
2021/09/01 09:41:22;;;;;;;7.53;5.47;;;23.60;62.20;;;;;;4766072;30;20055;-81
2021/09/01 09:43:52;;;;;;;10.20;5.93;;;23.90;62.20;;;;;;4784442;29;20067;-81
2021/09/01 09:46:18;;;;;;;6.60;4.32;;;23.70;61.20;;;;;;4803742;29;20116;-81
2021/09/01 09:48:46;;;;;;;6.55;4.80;;;23.60;60.20;;;;;;4822357;29;20042;-81
2021/09/01 09:51:18;;;;;;;7.40;5.00;;;23.60;61.80;;;;;;4810551;29;20282;-81
2021/09/01 09:53:51;;;;;;;8.15;5.47;;;24.00;62.50;;;;;;4819787;29;20067;-81
2021/09/01 09:56:20;;;;;;;9.98;5.20;;;24.20;60.10;;;;;;4819526;29;20381;-81
2021/09/01 09:58:53;;;;;;;8.80;5.00;;;23.90;61.10;;;;;;4789438;29;20101;-81
2021/09/01 10:01:21;;;;;;;10.98;4.75;;;23.50;60.20;;;;;;4801799;29;20066;-81
2021/09/01 10:03:48;;;;;;;17.05;4.72;;;23.20;61.80;;;;;;4804102;29;20030;-81
2021/09/01 10:06:17;;;;;;;10.80;4.55;;;23.40;61.80;;;;;;4807010;29;20046;-81
2021/09/01 10:08:44;;;;;;;6.25;4.25;;;23.20;62.40;;;;;;4806761;29;20210;-81
2021/09/01 10:11:12;;;;;;;7.25;4.63;;;23.40;62.20;;;;;;4804976;29;20038;-81
2021/09/01 10:13:41;;;;;;;8.48;4.30;;;23.60;61.60;;;;;;4830035;29;20042;-81
2021/09/01 10:16:13;;;;;;;7.80;4.30;;;23.80;60.40;;;;;;4837796;29;20347;-81
2021/09/01 10:18:40;;;;;;;6.75;4.45;;;23.90;59.50;;;;;;4837962;29;20038;-80
2021/09/01 10:21:07;;;;;;;9.75;4.80;;;24.20;60.30;;;;;;4836336;29;20070;-83
2021/09/01 10:23:44;;;;;;;7.65;4.85;;;24.50;58.60;;;;;;4822769;29;20041;-79
2021/09/01 10:26:20;;;;;;;;;;;24.50;58.60;;;;;;4838183;29;20045;-83
2021/09/01 10:28:45;;;;;;;7.72;5.05;;;24.50;58.90;;;;;;4823752;29;20100;-83
2021/09/01 10:31:12;;;;;;;4.93;4.03;;;24.30;59.00;;;;;;4850348;29;20048;-82
2021/09/01 10:33:41;;;;;;;9.73;4.43;;;24.20;57.70;;;;;;4864876;29;20034;-81
2021/09/01 10:36:25;;;;;;;16.30;5.05;;;24.00;59.20;;;;;;4840333;29;20026;-80
2021/09/01 10:38:56;;;;;;;13.60;4.38;;;24.10;58.10;;;;;;4854284;29;20049;-81
2021/09/01 10:41:33;;;;;;;7.78;4.68;;;24.00;59.00;;;;;;4852823;29;20032;-80
2021/09/01 10:44:08;;;;;;;;;;;23.90;58.50;;;;;;4855953;29;20030;-80
2021/09/01 10:46:55;;;;;;;5.70;4.25;;;24.00;59.50;;;;;;4855473;29;20185;-80
2021/09/01 10:49:26;;;;;;;7.38;4.63;;;24.30;57.60;;;;;;4822555;29;20138;-82
2021/09/01 10:52:03;;;;;;;11.95;4.00;;;24.40;56.10;;;;;;4837806;29;20030;-82
2021/09/01 10:54:29;;;;;;;15.13;4.50;;;24.50;55.60;;;;;;4805239;29;20059;-82
2021/09/01 10:56:56;;;;;;;13.25;4.28;;;24.60;55.80;;;;;;4851864;29;20105;-82
2021/09/01 10:59:26;;;;;;;;;;;24.90;55.80;;;;;;4838378;29;20042;-82
2021/09/01 11:02:15;;;;;;;6.03;3.60;;;25.00;55.60;;;;;;4822670;29;19987;-82
2021/09/01 11:04:56;;;;;;;6.93;4.15;;;24.50;55.00;;;;;;4837605;29;20069;-82
2021/09/01 11:07:32;;;;;;;7.30;4.03;;;24.20;56.20;;;;;;4837018;29;20244;-82
2021/09/01 11:10:00;;;;;;;7.68;4.03;;;23.80;56.60;;;;;;4817540;29;20077;-81
2021/09/01 11:12:28;;;;;;;9.32;4.18;;;23.40;57.60;;;;;;4828801;29;20030;-81
2021/09/01 11:14:54;;;;;;;12.25;4.50;;;23.30;58.70;;;;;;4840493;29;20060;-81
2021/09/01 11:17:23;;;;;;;7.97;4.38;;;23.10;58.90;;;;;;4855400;29;20229;-81
2021/09/01 11:19:54;;;;;;;6.57;4.10;;;23.00;59.60;;;;;;4852200;29;20096;-81
2021/09/01 11:22:28;;;;;;;9.73;3.97;;;22.90;59.90;;;;;;4837891;29;20037;-81
2021/09/01 11:25:09;;;;;;;7.05;4.07;;;23.20;60.70;;;;;;4837561;29;20696;-81
2021/09/01 11:27:39;;;;;;;5.25;3.80;;;23.60;59.00;;;;;;4842282;29;20046;-81
2021/09/01 11:30:09;;;;;;;10.00;4.43;;;24.00;59.10;;;;;;4846612;29;20137;-82
2021/09/01 11:32:39;;;;;;;8.80;3.88;;;24.30;58.90;;;;;;4819390;29;20038;-81
2021/09/01 11:35:09;;;;;;;6.88;3.85;;;24.50;56.20;;;;;;4836135;29;20036;-81
2021/09/01 11:37:35;;;;;;;6.35;3.95;;;24.50;54.80;;;;;;4818313;29;20038;-81
2021/09/01 11:40:01;;;;;;;4.72;3.67;;;24.30;56.30;;;;;;4833760;29;20037;-81
2021/09/01 11:42:28;;;;;;;6.28;3.53;;;24.00;55.40;;;;;;4837033;29;20089;-81
2021/09/01 11:44:59;;;;;;;9.35;4.43;;;23.70;57.50;;;;;;4837789;29;20022;-81
2021/09/01 11:47:25;;;;;;;5.97;3.97;;;23.60;57.60;;;;;;4843891;29;20068;-81
2021/09/01 11:49:56;;;;;;;9.27;4.53;;;23.60;58.00;;;;;;4856357;29;20048;-81
2021/09/01 11:52:40;;;;;;;8.18;4.05;;;23.70;57.20;;;;;;4838497;29;20101;-82
2021/09/01 11:55:06;;;;;;;17.13;4.38;;;23.70;56.90;;;;;;4846036;29;20097;-81
2021/09/01 11:57:32;;;;;;;9.43;3.90;;;23.50;57.30;;;;;;4847274;29;20062;-81
2021/09/01 12:00:00;;;;;;;6.15;4.18;;;23.40;57.40;;;;;;4852717;29;20329;-81
2021/09/01 12:02:31;;;;;;;8.13;4.30;;;23.30;57.70;;;;;;4826888;29;20030;-82
2021/09/01 12:04:59;;;;;;;5.15;3.58;;;23.30;58.90;;;;;;4872035;29;20321;-81
2021/09/01 12:07:35;;;;;;;4.95;3.45;;;23.40;58.00;;;;;;4856077;29;20395;-81
2021/09/01 12:10:08;;;;;;;6.17;4.00;;;23.70;58.10;;;;;;4848815;29;20033;-81
2021/09/01 12:12:36;;;;;;;9.18;3.80;;;24.10;57.50;;;;;;4838303;29;20279;-81
2021/09/01 12:15:29;;;;;;;5.40;4.25;;;24.30;57.30;;;;;;4851807;29;20037;-82
2021/09/01 12:18:06;;;;;;;6.30;3.72;;;24.20;56.80;;;;;;4802277;29;20107;-82
2021/09/01 12:20:34;;;;;;;11.23;4.75;;;24.30;57.10;;;;;;4780238;30;20319;-81
2021/09/01 12:23:03;;;;;;;8.43;3.92;;;24.40;56.10;;;;;;4787941;30;20137;-82
2021/09/01 12:25:29;;;;;;;6.80;4.50;;;24.50;55.00;;;;;;4787339;30;20086;-82
2021/09/01 12:28:13;;;;;;;5.57;4.00;;;24.40;55.20;;;;;;4786152;30;20039;-82
2021/09/01 12:30:42;;;;;;;7.35;4.50;;;24.50;55.90;;;;;;4787155;30;20027;-82
2021/09/01 12:33:13;;;;;;;6.45;4.50;;;24.50;56.00;;;;;;4787334;30;20098;-82
2021/09/01 12:35:40;;;;;;;5.88;4.03;;;24.30;55.10;;;;;;4786648;30;20387;-82
2021/09/01 12:38:07;;;;;;;6.80;4.10;;;24.10;54.90;;;;;;4800992;30;20047;-81
2021/09/01 12:40:37;;;;;;;7.75;4.80;;;24.00;55.70;;;;;;4801170;30;20023;-81
2021/09/01 12:43:10;;;;;;;5.65;3.97;;;23.90;56.40;;;;;;4797186;30;20039;-82
2021/09/01 12:45:39;;;;;;;8.15;4.22;;;23.90;57.20;;;;;;4770963;30;20047;-82
2021/09/01 12:48:08;;;;;;;5.72;3.75;;;24.00;57.60;;;;;;4787070;30;20110;-82
2021/09/01 12:50:42;;;;;;;9.23;4.50;;;24.20;57.40;;;;;;4798187;30;20080;-82
2021/09/01 12:53:11;;;;;;;7.68;4.55;;;24.40;56.50;;;;;;4776346;30;20120;-82
2021/09/01 12:55:45;;;;;;;7.97;4.65;;;24.60;56.40;;;;;;4834911;29;20107;-82
2021/09/01 12:58:11;;;;;;;6.13;4.25;;;24.70;54.70;;;;;;4822539;29;20267;-82
2021/09/01 13:00:37;;;;;;;10.73;4.65;;;24.80;55.40;;;;;;4822172;29;20075;-82
2021/09/01 13:03:04;;;;;;;11.10;4.33;;;25.00;54.60;;;;;;4822201;29;20225;-82
2021/09/01 13:05:29;;;;;;;7.82;4.97;;;25.30;54.20;;;;;;4822538;29;20304;-82
2021/09/01 13:07:55;;;;;;;9.40;4.28;;;25.60;53.10;;;;;;4806684;29;20034;-82
2021/09/01 13:10:22;;;;;;;6.60;3.75;;;25.40;54.30;;;;;;4821702;29;20071;-82
2021/09/01 13:12:53;;;;;;;7.05;4.03;;;25.40;53.40;;;;;;4821423;29;20035;-83
2021/09/01 13:15:20;;;;;;;6.97;4.32;;;25.30;53.20;;;;;;4821650;29;20038;-82
2021/09/01 13:17:45;;;;;;;6.38;3.78;;;25.50;54.60;;;;;;4820588;29;20033;-81
2021/09/01 13:20:13;;;;;;;7.32;3.83;;;25.40;53.50;;;;;;4820947;29;20050;-84
2021/09/01 13:22:40;;;;;;;9.63;4.20;;;25.30;54.70;;;;;;4834340;29;20094;-81
2021/09/01 13:25:07;;;;;;;;;;;25.10;53.80;;;;;;4826154;29;20139;-84
2021/09/01 13:27:33;;;;;;;6.38;3.88;;;24.80;54.40;;;;;;4821692;29;19971;-83
2021/09/01 13:29:59;;;;;;;7.75;4.00;;;24.60;54.30;;;;;;4821000;29;20034;-82
2021/09/01 13:32:25;;;;;;;6.47;4.15;;;24.50;55.00;;;;;;4820772;29;20368;-83
2021/09/01 13:34:51;;;;;;;7.90;5.00;;;24.50;55.60;;;;;;4816178;29;20038;-82
2021/09/01 13:37:17;;;;;;;7.38;4.30;;;24.60;55.20;;;;;;4817951;29;20065;-82
2021/09/01 13:39:43;;;;;;;9.40;4.28;;;24.80;55.20;;;;;;4819064;29;20050;-82
2021/09/01 13:42:10;;;;;;;6.60;3.92;;;25.00;55.50;;;;;;4820595;29;20034;-82
2021/09/01 13:44:37;;;;;;;8.05;4.30;;;25.20;54.50;;;;;;4805811;29;20109;-83
2021/09/01 13:47:04;;;;;;;7.13;4.22;;;25.30;53.70;;;;;;4820144;29;20349;-83
2021/09/01 13:49:30;;;;;;;4.78;3.80;;;25.40;53.50;;;;;;4805826;29;20058;-82
2021/09/01 13:51:56;;;;;;;5.95;4.18;;;25.40;52.80;;;;;;4805569;29;20046;-82
2021/09/01 13:54:24;;;;;;;7.17;3.93;;;25.30;52.80;;;;;;4805535;29;20038;-83
2021/09/01 13:56:50;;;;;;;6.95;4.88;;;25.10;52.80;;;;;;4820991;29;20038;-82
2021/09/01 13:59:17;;;;;;;5.65;3.83;;;24.80;53.20;;;;;;4805726;29;20401;-84
2021/09/01 14:01:43;;;;;;;8.40;4.68;;;24.70;53.60;;;;;;4806119;29;20054;-85
2021/09/01 14:04:10;;;;;;;6.80;4.33;;;24.60;52.80;;;;;;4821617;29;20040;-83
2021/09/01 14:06:36;;;;;;;9.68;4.28;;;24.70;53.00;;;;;;4806330;29;20095;-85
2021/09/01 14:09:03;;;;;;;5.82;4.22;;;24.70;51.50;;;;;;4806420;29;20030;-83
2021/09/01 14:11:29;;;;;;;7.13;4.00;;;24.60;51.10;;;;;;4837657;29;20037;-79
2021/09/01 14:13:55;;;;;;;11.15;3.83;;;24.80;52.00;;;;;;4836361;29;20029;-79
2021/09/01 14:16:21;;;;;;;7.25;4.10;;;24.90;50.50;;;;;;4824104;29;20030;-79
2021/09/01 14:18:47;;;;;;;11.05;4.20;;;24.90;50.70;;;;;;4824491;29;20105;-79
2021/09/01 14:21:14;;;;;;;9.57;3.90;;;25.10;52.30;;;;;;4806506;29;20107;-79
2021/09/01 14:23:40;;;;;;;6.97;3.65;;;25.30;51.00;;;;;;4820822;29;20037;-79
2021/09/01 14:26:06;;;;;;;6.55;3.85;;;25.50;50.80;;;;;;4821826;29;20022;-79
2021/09/01 14:28:33;;;;;;;5.85;4.18;;;25.60;51.30;;;;;;4838455;29;20038;-81
2021/09/01 14:30:59;;;;;;;8.65;4.07;;;25.70;51.30;;;;;;4821245;29;20043;-82
2021/09/01 14:33:25;;;;;;;9.27;4.00;;;25.90;50.70;;;;;;4800172;29;20034;-79
2021/09/01 14:35:52;;;;;;;7.60;4.07;;;25.70;50.10;;;;;;4827881;29;20033;-79
2021/09/01 14:38:18;;;;;;;6.00;3.90;;;25.50;50.20;;;;;;4821545;29;20110;-79
2021/09/01 14:40:45;;;;;;;8.05;4.15;;;25.40;50.70;;;;;;4846484;29;20090;-79
2021/09/01 14:43:12;;;;;;;6.50;3.95;;;25.40;50.80;;;;;;4823779;29;20067;-79
2021/09/01 14:45:38;;;;;;;7.32;4.20;;;25.40;50.60;;;;;;4809556;29;20364;-79
2021/09/01 14:48:04;;;;;;;7.95;4.45;;;25.30;50.60;;;;;;4842444;29;20102;-79
2021/09/01 14:50:31;;;;;;;5.95;3.88;;;25.30;50.60;;;;;;4842057;29;20407;-79
2021/09/01 14:52:57;;;;;;;5.73;3.80;;;25.30;50.00;;;;;;4823768;29;20037;-79
2021/09/01 14:55:24;;;;;;;8.10;3.95;;;25.30;50.20;;;;;;4842055;29;20038;-79
2021/09/01 14:57:49;;;;;;;9.77;4.40;;;25.20;51.10;;;;;;4848946;29;20029;-77
2021/09/01 15:00:16;;;;;;;7.03;4.32;;;25.20;50.70;;;;;;4838264;29;20037;-79
2021/09/01 15:02:41;;;;;;;5.80;3.90;;;25.20;51.60;;;;;;4807586;29;20053;-79
2021/09/01 15:05:08;;;;;;;5.10;3.92;;;25.20;50.80;;;;;;4832302;29;20325;-78
2021/09/01 15:07:34;;;;;;;;;;;25.20;50.70;;;;;;4846143;29;20254;-78
2021/09/01 15:10:00;;;;;;;5.30;3.73;;;25.20;50.20;;;;;;4824365;29;19915;-78
2021/09/01 15:12:27;;;;;;;7.17;3.83;;;25.10;49.80;;;;;;4855045;29;20030;-78
2021/09/01 15:14:52;;;;;;;7.38;4.03;;;25.00;50.20;;;;;;4839358;29;20132;-78
2021/09/01 15:17:18;;;;;;;9.90;3.75;;;24.90;49.60;;;;;;4854459;29;20037;-78
2021/09/01 15:19:44;;;;;;;5.93;3.75;;;24.90;50.40;;;;;;4854682;29;20029;-78
2021/09/01 15:22:10;;;;;;;8.82;4.47;;;24.80;50.50;;;;;;4837933;29;20041;-78
2021/09/01 15:24:36;;;;;;;8.68;4.30;;;24.80;51.10;;;;;;4849179;29;20097;-78
2021/09/01 15:27:05;;;;;;;8.13;4.97;;;24.80;51.70;;;;;;4851178;29;20029;-78
2021/09/01 15:29:31;;;;;;;5.78;3.47;;;24.80;50.90;;;;;;4846605;29;20038;-77
2021/09/01 15:31:59;;;;;;;6.25;4.53;;;24.70;50.60;;;;;;4858402;29;20030;-78
2021/09/01 15:34:27;;;;;;;6.85;4.07;;;24.60;50.90;;;;;;4828962;29;20030;-77